Tropical Cyclones
[Index]
Main Index Home Page Stock Weather Photos Extreme Storms Discussion Storm News and Storm Chasing Reports Tropical Cyclones / Hurricanes / Typhoons Weather Data and Links Wild Fires / Bushfires Weather Observation Techniques Weather Picture Catalogue Tornado Pictures and Reports Stock Video Footage and DVDs for sale
Season 1979-1980 Tropical Cyclone RUTH Track Map
Season 1979-1980 Summaries: [BoM-AU] [JTWC-AU] [JTWC-SIO] [JTWC-SPAC] [JTWC-SH]
<<- Previous TC | JTWC 1979-1980 Season | Next TC ->>

click for intensity scale information  Lat/long Grid: Show Hide

 Date Labels: Show Hide

Joint Typhoon Warning Centre Cyclone Data

Name: RUTH

11 Feb 1980 00:00 UTC to 18 Feb 1980 00:00 UTC

    date/time    lat    long     hPa   cat  kts
1980-02-11 00   16.2   148.1                  25          
1980-02-11 06   16.9   149.0                  25          
1980-02-11 12   17.5   150.2                  25          
1980-02-11 18   18.1   151.7                  25          
1980-02-12 00   18.5   153.3                  30          
1980-02-12 06   18.7   154.2                  35          
1980-02-12 12   18.8   155.0            1     45          
1980-02-12 18   19.0   156.8            1     50          
1980-02-13 00   19.2   158.5            2     55          
1980-02-13 06   20.0   159.1            2     55          
1980-02-13 12   20.8   159.0            1     50          
1980-02-13 18   20.4   158.4            1     45          
1980-02-14 00   20.0   157.9            1     40          
1980-02-14 06   20.5   157.7            1     40          
1980-02-14 12   20.8   157.5                  35          
1980-02-14 18   20.5   157.2                  35          
1980-02-15 00   20.2   156.9                  35          
1980-02-15 06   20.0   156.9                  35          
1980-02-15 12   19.8   157.0                  30          
1980-02-15 18   19.6   157.1                  30          
1980-02-16 00   19.6   157.5                  30          
1980-02-16 06   19.9   158.2                  30          
1980-02-16 12   20.5   159.0                  30          
1980-02-16 18   21.2   159.7                  30          
1980-02-17 00   21.9   160.5                  25          
1980-02-17 06   22.2   159.9                  25          
1980-02-17 12   22.2   158.6                  25          
1980-02-17 18   22.2   157.8                  25          
1980-02-18 00   22.0   157.0                  25          
Winds are 1-min average.

Tropical cyclone tracks developed by Michael Bath using data from the Joint Typhoon Warning Centre Best Tracks and Google Maps.


[Australian Severe Weather index] [Copyright Notice] [Email Contacts] [Search This Site] [Privacy Policy]
Document: tropical_cyclone_ruth.htm Updated: 18 September 2016